createdAt,value
2017-08-03T00:00:20.211Z,90.90
2017-08-03T00:02:47.744Z,90.60
2017-08-03T00:05:15.282Z,91.00
2017-08-03T00:07:42.800Z,91.10
2017-08-03T00:10:11.107Z,91.30
2017-08-03T00:12:38.623Z,91.30
2017-08-03T00:15:06.151Z,91.10
2017-08-03T00:17:33.694Z,91.10
2017-08-03T00:20:01.229Z,91.20
2017-08-03T00:22:28.771Z,90.90
2017-08-03T00:24:56.295Z,90.90
2017-08-03T00:27:23.835Z,91.00
2017-08-03T00:29:51.356Z,90.80
2017-08-03T00:32:18.894Z,90.80
2017-08-03T00:34:46.419Z,90.90
2017-08-03T00:37:13.950Z,90.90
2017-08-03T00:39:41.471Z,91.10
2017-08-03T00:42:09.018Z,91.00
2017-08-03T00:44:36.539Z,90.50
2017-08-03T00:47:04.062Z,90.60
2017-08-03T00:49:31.600Z,90.40
2017-08-03T00:51:59.127Z,90.70
2017-08-03T00:54:26.666Z,91.30
2017-08-03T00:56:54.191Z,91.50
2017-08-03T00:59:21.724Z,91.60
2017-08-03T01:01:49.254Z,91.40
2017-08-03T01:04:16.791Z,91.30
2017-08-03T01:06:45.083Z,91.20
2017-08-03T01:09:12.622Z,91.20
2017-08-03T01:11:40.156Z,91.40
2017-08-03T01:14:07.699Z,91.70
2017-08-03T01:16:35.983Z,92.10
2017-08-03T01:19:03.507Z,92.00
2017-08-03T01:21:31.814Z,92.00
2017-08-03T01:23:59.343Z,92.00
2017-08-03T01:26:26.879Z,92.30
2017-08-03T01:28:54.399Z,92.30
2017-08-03T01:31:21.934Z,92.10
2017-08-03T01:33:49.455Z,92.10
2017-08-03T01:36:17.760Z,92.00
2017-08-03T01:38:45.293Z,92.00
2017-08-03T01:41:12.826Z,91.90
2017-08-03T01:43:40.356Z,91.90
2017-08-03T01:46:07.914Z,91.70
2017-08-03T01:48:35.439Z,91.30
2017-08-03T01:51:02.964Z,91.50
2017-08-03T01:53:30.514Z,91.30
2017-08-03T01:55:58.044Z,91.80
2017-08-03T01:58:26.351Z,92.10
2017-08-03T02:00:53.873Z,92.00
2017-08-03T02:03:21.407Z,92.00
2017-08-03T02:05:48.922Z,91.90
2017-08-03T02:08:16.458Z,91.80
2017-08-03T02:10:43.984Z,91.60
2017-08-03T02:13:11.524Z,91.80
2017-08-03T02:15:39.049Z,91.80
2017-08-03T02:18:06.601Z,92.00
2017-08-03T02:20:34.895Z,92.10
2017-08-03T02:23:02.416Z,92.10
2017-08-03T02:25:29.962Z,92.00
2017-08-03T02:27:57.485Z,92.10
2017-08-03T02:30:25.027Z,92.10
2017-08-03T02:32:53.317Z,91.90
2017-08-03T02:35:20.860Z,91.90
2017-08-03T02:37:48.381Z,91.70
2017-08-03T02:40:16.699Z,92.00
2017-08-03T02:42:44.223Z,92.10
2017-08-03T02:45:12.536Z,91.80
2017-08-03T02:47:40.050Z,91.50
2017-08-03T02:50:07.572Z,91.80
2017-08-03T02:52:35.111Z,92.30
2017-08-03T02:55:02.630Z,92.60
2017-08-03T02:57:30.171Z,92.80
2017-08-03T02:59:57.694Z,92.80
2017-08-03T03:02:26.003Z,92.90
2017-08-03T03:04:53.518Z,92.90
2017-08-03T03:07:21.054Z,92.90
2017-08-03T03:09:49.338Z,92.00
2017-08-03T03:12:16.881Z,91.90
2017-08-03T03:14:44.394Z,92.20
2017-08-03T03:17:11.929Z,92.80
2017-08-03T03:19:39.455Z,93.30
2017-08-03T03:22:07.771Z,93.10
2017-08-03T03:24:35.293Z,93.10
2017-08-03T03:27:02.836Z,92.30
2017-08-03T03:29:31.128Z,93.20
2017-08-03T03:31:58.674Z,93.20
2017-08-03T03:34:26.194Z,93.40
2017-08-03T03:36:53.719Z,93.60
2017-08-03T03:39:21.263Z,93.40
2017-08-03T03:41:48.788Z,93.20
2017-08-03T03:44:16.335Z,93.30
2017-08-03T03:46:43.865Z,93.80
2017-08-03T03:49:11.427Z,94.20
2017-08-03T03:51:38.942Z,94.30
2017-08-03T03:54:06.518Z,94.00
2017-08-03T03:56:34.043Z,93.90
2017-08-03T03:59:01.581Z,94.00
2017-08-03T04:01:29.093Z,93.90
2017-08-03T04:03:57.395Z,94.20
2017-08-03T04:06:24.913Z,93.80
2017-08-03T04:08:52.456Z,94.10
2017-08-03T04:11:19.979Z,94.30
2017-08-03T04:13:47.523Z,94.60
2017-08-03T04:16:15.045Z,94.70
2017-08-03T04:18:42.583Z,94.90
2017-08-03T04:21:10.095Z,94.40
2017-08-03T04:23:37.634Z,94.10
2017-08-03T04:26:05.154Z,94.20
2017-08-03T04:28:32.686Z,94.50
2017-08-03T04:31:00.204Z,94.90
2017-08-03T04:33:27.722Z,95.30
2017-08-03T04:35:55.278Z,95.40
2017-08-03T04:38:22.791Z,95.20
2017-08-03T04:40:51.103Z,94.90
2017-08-03T04:43:18.618Z,94.50
2017-08-03T04:45:46.161Z,94.40
2017-08-03T04:48:13.678Z,94.70
2017-08-03T04:50:41.214Z,95.00
2017-08-03T04:53:08.727Z,94.90
2017-08-03T04:55:37.040Z,95.70
2017-08-03T04:58:04.562Z,95.40
2017-08-03T05:00:32.097Z,95.20
2017-08-03T05:02:59.612Z,95.20
2017-08-03T05:05:27.158Z,94.80
2017-08-03T05:07:54.673Z,94.70
2017-08-03T05:10:22.997Z,95.50
2017-08-03T05:12:50.522Z,95.50
2017-08-03T05:15:18.061Z,95.70
2017-08-03T05:17:45.575Z,95.60
2017-08-03T05:20:13.125Z,95.70
2017-08-03T05:22:40.644Z,95.70
2017-08-03T05:25:08.186Z,95.50
2017-08-03T05:27:35.703Z,95.50
2017-08-03T05:30:03.986Z,94.90
2017-08-03T05:32:32.436Z,94.90
2017-08-03T05:34:59.954Z,94.80
2017-08-03T05:37:27.489Z,94.70
2017-08-03T05:39:55.778Z,95.10
2017-08-03T05:42:24.078Z,95.10
2017-08-03T05:44:51.598Z,95.10
2017-08-03T05:47:19.130Z,95.30
2017-08-03T05:49:47.868Z,95.40
2017-08-03T05:52:16.409Z,95.40
2017-08-03T05:54:43.926Z,95.30
2017-08-03T05:57:12.235Z,96.50
2017-08-03T05:59:39.749Z,96.40
2017-08-03T06:02:07.286Z,96.40
2017-08-03T06:04:34.802Z,95.90
2017-08-03T06:07:02.335Z,96.00
2017-08-03T06:09:29.855Z,96.20
2017-08-03T06:11:58.168Z,96.90
2017-08-03T06:14:25.681Z,96.90
2017-08-03T06:16:53.217Z,97.10
2017-08-03T06:19:20.738Z,97.60
2017-08-03T06:21:48.254Z,98.40
2017-08-03T06:24:15.802Z,98.60
2017-08-03T06:26:44.091Z,99.80
2017-08-03T06:29:11.630Z,99.80
2017-08-03T06:31:39.145Z,99.50
2017-08-03T06:34:07.459Z,98.90
2017-08-03T06:36:34.990Z,98.80
2017-08-03T06:39:02.530Z,98.60
2017-08-03T06:41:30.125Z,98.90
2017-08-03T06:43:57.665Z,98.90
2017-08-03T06:46:25.187Z,99.00
2017-08-03T06:48:52.724Z,99.40
2017-08-03T06:51:21.007Z,99.90
2017-08-03T06:53:48.552Z,99.90
2017-08-03T06:56:16.845Z,99.90
2017-08-03T06:58:44.381Z,99.90
2017-08-03T07:01:11.907Z,99.80
2017-08-03T07:03:39.446Z,99.70
2017-08-03T07:06:06.963Z,99.90
2017-08-03T07:08:34.512Z,99.40
2017-08-03T07:11:02.030Z,99.80
2017-08-03T07:13:29.547Z,99.90
2017-08-03T07:15:57.094Z,99.90
2017-08-03T07:18:24.615Z,99.90
2017-08-03T07:20:52.163Z,98.80
2017-08-03T07:23:19.695Z,99.00
2017-08-03T07:25:47.229Z,99.30
2017-08-03T07:28:14.754Z,99.40
2017-08-03T07:30:43.056Z,98.70
2017-08-03T07:33:10.609Z,98.70
2017-08-03T07:35:38.168Z,98.70
2017-08-03T07:38:05.706Z,98.70
2017-08-03T07:40:33.245Z,98.80
2017-08-03T07:43:00.768Z,98.90
2017-08-03T07:45:29.079Z,99.50
2017-08-03T07:47:56.601Z,99.10
2017-08-03T07:50:24.148Z,99.20
2017-08-03T07:52:51.670Z,99.50
2017-08-03T07:55:19.224Z,98.90
2017-08-03T07:57:46.755Z,98.90
2017-08-03T08:00:14.306Z,98.80
2017-08-03T08:02:41.831Z,98.70
2017-08-03T08:05:09.354Z,98.70
2017-08-03T08:07:36.899Z,98.30
2017-08-03T08:10:04.421Z,97.90
2017-08-03T08:12:31.967Z,97.80
2017-08-03T08:14:59.495Z,97.60
2017-08-03T08:17:27.034Z,97.90
2017-08-03T08:19:54.559Z,97.70
2017-08-03T08:22:22.130Z,97.30
2017-08-03T08:24:49.658Z,96.90
2017-08-03T08:27:17.207Z,97.10
2017-08-03T08:29:44.738Z,96.70
2017-08-03T08:32:12.288Z,96.80
2017-08-03T08:34:39.809Z,96.70
2017-08-03T08:37:08.118Z,97.10
2017-08-03T08:39:35.679Z,97.10
2017-08-03T08:42:03.255Z,97.00
2017-08-03T08:44:30.811Z,96.50
2017-08-03T08:46:58.412Z,96.40
2017-08-03T08:49:25.939Z,96.90
2017-08-03T08:51:53.478Z,97.00
2017-08-03T08:54:21.014Z,96.90
2017-08-03T08:56:48.571Z,96.20
2017-08-03T08:59:16.094Z,96.90
2017-08-03T09:01:43.617Z,96.80
2017-08-03T09:04:11.922Z,96.80
2017-08-03T09:06:39.446Z,96.70
2017-08-03T09:09:07.757Z,96.70
2017-08-03T09:11:35.279Z,96.70
2017-08-03T09:14:02.827Z,96.70
2017-08-03T09:16:30.347Z,96.80
2017-08-03T09:18:59.496Z,97.50
2017-08-03T09:21:27.027Z,97.40
2017-08-03T09:23:55.335Z,98.40
2017-08-03T09:26:22.862Z,98.40
2017-08-03T09:28:51.176Z,98.20
2017-08-03T09:31:18.898Z,98.10
2017-08-03T09:33:47.274Z,98.40
2017-08-03T09:36:14.934Z,98.20
2017-08-03T09:38:42.502Z,98.00
2017-08-03T09:41:13.552Z,98.00
2017-08-03T09:43:41.253Z,98.00
2017-08-03T09:46:08.767Z,98.10
2017-08-03T09:48:37.501Z,97.20
2017-08-03T09:51:05.291Z,97.10
2017-08-03T09:53:33.162Z,96.80
2017-08-03T09:56:00.686Z,96.60
2017-08-03T09:58:29.007Z,95.50
2017-08-03T10:00:56.532Z,95.50
2017-08-03T10:03:24.065Z,95.90
2017-08-03T10:05:51.608Z,96.30
2017-08-03T14:27:37.870Z,65.30
2017-08-03T14:30:05.395Z,65.10
2017-08-03T14:32:32.936Z,63.00
2017-08-03T14:35:00.458Z,63.90
2017-08-03T14:37:27.994Z,62.00
2017-08-03T14:39:56.287Z,62.30
2017-08-03T14:42:23.835Z,61.80
2017-08-03T14:44:52.131Z,60.30
2017-08-03T14:47:19.667Z,60.30
2017-08-03T14:49:47.959Z,61.00
2017-08-03T14:52:15.508Z,61.00
2017-08-03T14:54:43.032Z,62.60
2017-08-03T14:57:11.351Z,59.90
2017-08-03T14:59:38.891Z,59.80
2017-08-03T15:02:06.415Z,61.40
2017-08-03T15:04:33.958Z,61.00
2017-08-03T15:07:01.475Z,62.10
2017-08-03T15:09:29.020Z,61.00
2017-08-03T15:11:56.558Z,61.50
2017-08-03T15:14:24.875Z,60.70
2017-08-03T15:16:53.168Z,59.40
2017-08-03T15:19:20.716Z,59.30
2017-08-03T15:21:48.243Z,57.50
2017-08-03T15:24:15.765Z,57.00
2017-08-03T15:26:43.310Z,59.10
2017-08-03T15:29:11.728Z,58.10
2017-08-03T15:31:40.035Z,58.60
2017-08-03T15:34:07.555Z,59.10
2017-08-03T15:36:35.099Z,58.40
2017-08-03T15:39:02.634Z,58.40
2017-08-03T15:41:30.938Z,59.00
2017-08-03T15:43:58.564Z,58.50
2017-08-03T15:46:26.886Z,58.70
2017-08-03T15:48:54.405Z,58.00
2017-08-03T15:51:21.926Z,58.70
2017-08-03T15:53:50.230Z,59.90
2017-08-03T15:56:17.751Z,59.90
2017-08-03T15:58:45.295Z,59.30
2017-08-03T16:01:12.827Z,59.70
2017-08-03T16:03:40.366Z,60.10
2017-08-03T16:06:07.979Z,59.70
2017-08-03T16:08:35.551Z,59.70
2017-08-03T16:11:03.071Z,60.70
2017-08-03T16:13:30.615Z,60.60
2017-08-03T16:15:58.905Z,61.10
2017-08-03T16:18:26.670Z,61.00
2017-08-03T16:20:54.194Z,61.30
2017-08-03T16:23:21.719Z,61.60
2017-08-03T16:25:49.264Z,62.10
2017-08-03T16:28:17.555Z,62.70
2017-08-03T16:30:45.099Z,61.70
2017-08-03T16:33:12.619Z,61.50
2017-08-03T16:35:40.159Z,61.50
2017-08-03T16:38:08.453Z,61.90
2017-08-03T16:40:35.996Z,61.90
2017-08-03T16:43:03.515Z,61.90
2017-08-03T16:45:31.824Z,63.20
2017-08-03T16:47:59.339Z,63.20
2017-08-03T16:50:27.641Z,63.90
2017-08-03T16:52:55.923Z,65.10
2017-08-03T16:55:23.469Z,65.10
2017-08-03T16:57:51.756Z,66.10
2017-08-03T17:00:19.284Z,66.10
2017-08-03T17:02:46.944Z,66.40
2017-08-03T17:05:14.478Z,66.60
2017-08-03T17:07:42.014Z,66.70
2017-08-03T17:10:10.303Z,66.90
2017-08-03T17:12:37.843Z,66.70
2017-08-03T17:15:05.406Z,66.90
2017-08-03T17:17:33.764Z,67.70
2017-08-03T17:20:01.296Z,67.50
2017-08-03T17:22:28.822Z,67.70
2017-08-03T17:24:56.369Z,67.30
2017-08-03T17:27:24.658Z,68.50
2017-08-03T17:29:52.195Z,67.50
2017-08-03T17:32:19.723Z,68.10
2017-08-03T17:34:47.263Z,68.10
2017-08-03T17:37:14.783Z,68.10
2017-08-03T17:39:42.321Z,67.50
2017-08-03T17:42:10.611Z,66.60
2017-08-03T17:44:38.927Z,67.60
2017-08-03T17:47:06.446Z,67.50
2017-08-03T17:49:33.962Z,68.30
2017-08-03T17:52:01.506Z,68.80
2017-08-03T17:54:29.801Z,68.60
2017-08-03T17:56:57.391Z,69.40
2017-08-03T17:59:24.910Z,68.80
2017-08-03T18:01:52.447Z,69.20
2017-08-03T18:04:19.972Z,70.40
2017-08-03T18:06:47.506Z,70.70
2017-08-03T18:09:15.028Z,70.70
2017-08-03T18:11:42.564Z,71.00
2017-08-03T18:14:10.086Z,70.90
2017-08-03T18:16:37.622Z,71.40
2017-08-03T18:19:05.146Z,71.00
2017-08-03T18:21:32.712Z,71.40
2017-08-03T18:24:01.005Z,72.40
2017-08-03T18:26:28.522Z,73.30
2017-08-03T18:28:56.071Z,73.00
2017-08-03T18:31:24.354Z,72.60
2017-08-03T18:33:51.894Z,72.60
2017-08-03T18:36:20.221Z,72.60
2017-08-03T18:38:47.786Z,71.90
2017-08-03T18:41:16.113Z,73.10
2017-08-03T18:43:43.655Z,73.00
2017-08-03T18:46:11.236Z,73.20
2017-08-03T18:48:38.781Z,73.30
2017-08-03T18:51:06.302Z,73.90
2017-08-03T18:53:33.850Z,73.90
2017-08-03T18:56:01.374Z,73.80
2017-08-03T18:58:28.890Z,74.80
2017-08-03T19:00:56.478Z,74.00
2017-08-03T19:03:24.064Z,74.70
2017-08-03T19:05:51.667Z,74.90
2017-08-03T19:08:19.186Z,74.70
2017-08-03T19:10:46.728Z,75.00
2017-08-03T19:13:15.014Z,75.20
2017-08-03T19:15:42.614Z,75.10
2017-08-03T19:18:10.206Z,75.40
2017-08-03T19:20:37.805Z,75.80
2017-08-03T19:23:05.319Z,75.90
2017-08-03T19:25:33.691Z,76.00
2017-08-03T19:28:01.210Z,76.00
2017-08-03T19:30:28.735Z,76.30
2017-08-03T19:32:57.041Z,77.00
2017-08-03T19:35:24.555Z,77.00
2017-08-03T19:37:52.854Z,78.00
2017-08-03T19:40:20.416Z,77.00
2017-08-03T19:42:47.958Z,77.00
2017-08-03T19:45:15.539Z,77.50
2017-08-03T19:47:43.117Z,77.90
2017-08-03T19:50:11.407Z,78.30
2017-08-03T19:52:38.961Z,78.30
2017-08-03T19:55:06.483Z,78.70
2017-08-03T19:57:34.027Z,79.10
2017-08-03T20:00:01.590Z,79.30
2017-08-03T20:02:29.172Z,78.90
2017-08-03T20:04:56.720Z,78.90
2017-08-03T20:07:31.738Z,80.20
2017-08-03T20:10:00.225Z,80.00
2017-08-03T20:12:28.559Z,81.60
2017-08-03T20:14:56.099Z,81.60
2017-08-03T20:17:23.619Z,81.80
2017-08-03T20:19:51.219Z,83.10
2017-08-03T20:22:18.734Z,84.70
2017-08-03T20:24:46.338Z,85.30
2017-08-03T20:27:13.923Z,86.80
2017-08-03T20:29:41.475Z,87.60
2017-08-03T20:32:08.998Z,87.40
2017-08-03T20:34:36.520Z,88.00
2017-08-03T20:37:04.105Z,88.80
2017-08-03T20:39:31.636Z,88.50
2017-08-03T20:41:59.940Z,90.00
2017-08-03T20:44:27.464Z,90.00
2017-08-03T20:46:55.054Z,90.00
2017-08-03T20:49:22.639Z,90.20
2017-08-03T20:51:50.176Z,89.70
2017-08-03T20:54:17.689Z,90.30
2017-08-03T20:56:45.232Z,89.80
2017-08-03T20:59:12.755Z,89.50
2017-08-03T21:01:40.299Z,89.30
2017-08-03T21:04:07.876Z,89.50
2017-08-03T21:06:35.395Z,90.00
2017-08-03T21:09:02.934Z,90.10
2017-08-03T21:11:30.458Z,90.40
2017-08-03T21:13:58.006Z,90.80
2017-08-03T21:16:25.529Z,90.90
2017-08-03T21:18:53.132Z,90.90
2017-08-03T21:21:20.650Z,91.00
2017-08-03T21:23:48.950Z,91.10
2017-08-03T21:26:16.475Z,91.10
2017-08-03T21:28:44.784Z,90.90
2017-08-03T21:31:12.302Z,90.90
2017-08-03T21:33:39.838Z,91.40
2017-08-03T21:36:07.354Z,91.40
2017-08-03T21:38:34.879Z,91.60
2017-08-03T21:41:03.184Z,92.10
2017-08-03T21:43:30.697Z,92.10
2017-08-03T21:45:58.238Z,92.20
2017-08-03T21:48:25.764Z,92.10
2017-08-03T21:50:53.314Z,92.10
2017-08-03T21:53:21.610Z,92.40
2017-08-03T21:55:49.151Z,92.40
2017-08-03T21:58:17.438Z,92.10
2017-08-03T22:00:56.767Z,92.10
2017-08-03T22:03:24.287Z,92.00
2017-08-03T22:05:51.830Z,92.10
2017-08-03T22:08:19.345Z,92.30
2017-08-03T22:10:46.866Z,92.20
2017-08-03T22:13:14.410Z,92.00
2017-08-03T22:15:41.933Z,91.80
2017-08-03T22:18:09.471Z,91.70
2017-08-03T22:20:36.987Z,91.30
2017-08-03T22:23:04.523Z,91.50
2017-08-03T22:25:32.043Z,91.50
2017-08-03T22:27:59.587Z,91.50
2017-08-03T22:30:27.106Z,91.40
2017-08-03T22:32:54.655Z,91.10
2017-08-03T22:35:23.543Z,90.90
2017-08-03T22:37:51.063Z,91.00
2017-08-03T22:40:18.609Z,90.70
2017-08-03T22:42:47.183Z,90.30
2017-08-03T22:45:14.751Z,90.60
2017-08-03T22:47:42.267Z,91.30
2017-08-03T22:50:09.807Z,91.90
2017-08-03T22:52:37.330Z,92.00
2017-08-03T22:55:04.862Z,92.20
2017-08-03T22:57:32.379Z,92.10
2017-08-03T22:59:59.920Z,91.80
2017-08-03T23:02:27.439Z,92.20
2017-08-03T23:04:55.747Z,92.20
2017-08-03T23:07:23.266Z,92.20
2017-08-03T23:09:51.547Z,92.30
2017-08-03T23:12:19.083Z,92.20
2017-08-03T23:14:46.611Z,92.30
2017-08-03T23:17:14.887Z,92.20
2017-08-03T23:19:42.411Z,92.30
2017-08-03T23:22:09.954Z,92.20
2017-08-03T23:24:37.465Z,92.40
2017-08-03T23:27:05.005Z,92.60
2017-08-03T23:29:32.529Z,92.50
2017-08-03T23:32:00.071Z,92.10
2017-08-03T23:34:27.593Z,92.60
2017-08-03T23:36:55.884Z,91.90
2017-08-03T23:39:24.190Z,91.80
2017-08-03T23:41:51.711Z,91.80
2017-08-03T23:44:19.251Z,91.60
2017-08-03T23:46:46.775Z,91.40
2017-08-03T23:49:14.313Z,91.00
2017-08-03T23:51:42.600Z,90.60
2017-08-03T23:54:10.910Z,90.60
2017-08-03T23:56:38.431Z,90.50
2017-08-03T23:59:05.955Z,90.50
